createdAt,value
2018-08-24T00:03:58.454Z,12.50
2018-08-24T00:10:03.121Z,13.43
2018-08-24T00:16:07.718Z,15.40
2018-08-24T00:22:12.326Z,13.90
2018-08-24T00:28:16.921Z,15.80
2018-08-24T00:34:21.553Z,17.20
2018-08-24T00:40:26.165Z,17.37
2018-08-24T00:46:30.754Z,19.50
2018-08-24T00:52:35.361Z,19.47
2018-08-24T00:58:40.342Z,20.03
2018-08-24T01:04:44.937Z,21.33
2018-08-24T01:10:49.533Z,25.00
2018-08-24T01:16:59.133Z,21.10
2018-08-24T01:23:03.708Z,18.93
2018-08-24T01:29:08.340Z,20.17
2018-08-24T01:35:12.950Z,19.93
2018-08-24T01:41:17.599Z,19.80
2018-08-24T01:47:22.176Z,31.10
2018-08-24T01:53:26.762Z,19.93
2018-08-24T01:59:31.392Z,23.67
2018-08-24T02:05:35.991Z,24.77
2018-08-24T02:11:40.663Z,30.20
2018-08-24T02:17:50.197Z,22.60
2018-08-24T02:23:54.802Z,17.00
2018-08-24T02:29:59.416Z,20.53
2018-08-24T02:36:04.001Z,26.30
2018-08-24T02:42:08.590Z,20.73
2018-08-24T02:48:13.192Z,22.47
2018-08-24T02:54:17.779Z,20.73
2018-08-24T03:00:22.402Z,22.03
2018-08-24T03:06:26.986Z,26.00
2018-08-24T03:12:31.601Z,29.90
2018-08-24T03:18:36.171Z,21.93
2018-08-24T03:24:40.738Z,24.17
2018-08-24T03:30:45.325Z,26.03
2018-08-24T03:36:49.974Z,27.30
2018-08-24T03:42:54.564Z,25.57
2018-08-24T03:48:59.172Z,28.53
2018-08-24T03:55:03.771Z,29.17
2018-08-24T04:01:08.366Z,23.60
2018-08-24T04:07:12.954Z,31.70
2018-08-24T04:13:17.538Z,23.50
2018-08-24T04:19:28.449Z,24.50
2018-08-24T04:25:33.055Z,24.70
2018-08-24T04:31:37.683Z,26.20
2018-08-24T04:37:42.290Z,27.37
2018-08-24T04:43:46.993Z,24.83
2018-08-24T04:49:51.906Z,25.87
2018-08-24T04:55:56.493Z,20.53
2018-08-24T05:02:01.073Z,20.00
2018-08-24T05:08:05.781Z,14.13
2018-08-24T05:14:11.111Z,16.93
2018-08-24T05:20:15.708Z,16.63
2018-08-24T05:26:20.280Z,21.30
2018-08-24T05:32:24.855Z,17.43
2018-08-24T05:38:29.474Z,15.50
2018-08-24T05:44:34.060Z,11.27
2018-08-24T05:50:38.629Z,13.63
2018-08-24T05:56:43.207Z,11.63
2018-08-24T06:02:48.093Z,11.60
2018-08-24T06:09:26.194Z,17.27
2018-08-24T06:15:30.791Z,9.63
2018-08-24T06:21:35.357Z,9.47
2018-08-24T06:27:39.922Z,8.90
2018-08-24T06:33:44.526Z,9.90
2018-08-24T06:39:49.161Z,12.93
2018-08-24T06:45:53.722Z,9.87
2018-08-24T06:51:58.294Z,6.70
2018-08-24T06:58:02.854Z,9.07
2018-08-24T07:04:07.391Z,8.33
2018-08-24T07:10:11.967Z,7.93
2018-08-24T07:16:16.654Z,8.53
2018-08-24T07:22:21.206Z,8.37
2018-08-24T07:28:25.828Z,10.53
2018-08-24T07:34:30.402Z,12.07
2018-08-24T07:40:35.337Z,12.57
2018-08-24T07:46:40.282Z,20.37
2018-08-24T07:52:44.829Z,17.53
2018-08-24T07:58:49.404Z,19.50
2018-08-24T08:04:54.335Z,19.40
2018-08-24T08:10:58.922Z,18.27
2018-08-24T08:17:03.824Z,21.07
2018-08-24T08:23:08.442Z,24.20
2018-08-24T08:29:17.084Z,19.43
2018-08-24T08:35:21.681Z,18.80
2018-08-24T08:41:27.101Z,17.37
2018-08-24T08:47:31.752Z,16.40
2018-08-24T08:53:36.367Z,17.43
2018-08-24T08:59:40.960Z,15.43
2018-08-24T09:05:45.562Z,17.07
2018-08-24T09:11:50.166Z,18.60
2018-08-24T09:18:00.026Z,17.80
2018-08-24T09:25:08.548Z,20.47
2018-08-24T09:31:18.239Z,20.90
2018-08-24T09:37:28.137Z,21.57
2018-08-24T09:43:37.862Z,23.93
2018-08-24T09:49:42.554Z,22.87
2018-08-24T09:55:47.159Z,25.97
2018-08-24T10:01:56.964Z,25.53
2018-08-24T10:08:06.872Z,23.17
2018-08-24T10:14:11.897Z,20.03
2018-08-24T10:20:16.482Z,19.73
2018-08-24T10:26:21.124Z,23.03
2018-08-24T10:32:25.708Z,18.83
2018-08-24T10:38:30.447Z,19.43
2018-08-24T10:44:35.096Z,13.73
2018-08-24T10:50:39.747Z,10.53
2018-08-24T10:56:44.354Z,13.47
2018-08-24T11:02:48.943Z,11.23
2018-08-24T11:08:53.571Z,10.03
2018-08-24T11:14:58.295Z,11.43
2018-08-24T11:21:02.911Z,9.03
2018-08-24T11:27:07.535Z,8.57
2018-08-24T11:33:12.199Z,10.67
2018-08-24T11:39:16.790Z,11.30
2018-08-24T11:45:21.425Z,12.33
2018-08-24T11:51:25.989Z,8.93
2018-08-24T11:57:30.605Z,8.30
2018-08-24T12:03:35.177Z,9.60
2018-08-24T12:09:39.779Z,8.00
2018-08-24T12:15:44.366Z,8.80
2018-08-24T12:21:48.937Z,8.50
2018-08-24T12:27:53.548Z,11.33
2018-08-24T12:33:58.191Z,7.83
2018-08-24T12:40:02.789Z,8.27
2018-08-24T12:46:08.186Z,8.47
2018-08-24T12:52:12.917Z,10.23
2018-08-24T12:58:17.409Z,8.97
2018-08-24T13:04:22.010Z,10.70
2018-08-24T13:10:26.620Z,8.33
2018-08-24T13:16:31.265Z,8.77
2018-08-24T13:22:35.873Z,10.60
2018-08-24T13:28:40.472Z,8.83
2018-08-24T13:34:45.034Z,8.57
2018-08-24T13:40:49.632Z,8.83
2018-08-24T13:46:54.276Z,6.80
2018-08-24T13:52:58.865Z,6.93
2018-08-24T13:59:03.506Z,7.83
2018-08-24T14:05:08.099Z,5.20
2018-08-24T14:11:12.695Z,4.70
2018-08-24T14:17:17.275Z,7.93
2018-08-24T14:23:21.930Z,6.30
2018-08-24T14:29:26.521Z,5.60
2018-08-24T14:35:31.341Z,6.13
2018-08-24T14:41:35.952Z,3.80
2018-08-24T14:47:40.607Z,9.67
2018-08-24T14:53:45.209Z,5.27
2018-08-24T14:59:49.833Z,8.40
2018-08-24T15:05:57.700Z,4.17
2018-08-24T15:12:02.321Z,6.60
2018-08-24T15:18:06.993Z,4.43
2018-08-24T15:24:11.607Z,12.13
2018-08-24T15:30:16.310Z,2.70
2018-08-24T15:36:20.971Z,3.23
2018-08-24T15:42:25.866Z,2.70
2018-08-24T15:48:30.525Z,16.23
2018-08-24T15:54:35.269Z,7.23
2018-08-24T16:00:39.913Z,2.50
2018-08-24T16:06:44.550Z,1.67
2018-08-24T16:12:49.527Z,1.93
2018-08-24T16:18:54.870Z,2.63
2018-08-24T16:24:59.916Z,3.27
2018-08-24T16:31:04.935Z,2.83
2018-08-24T16:37:10.018Z,3.97
2018-08-24T16:43:15.608Z,2.50
2018-08-24T16:49:20.605Z,2.03
2018-08-24T16:55:25.589Z,3.20
2018-08-24T17:01:30.621Z,3.63
2018-08-24T17:07:35.637Z,5.20
2018-08-24T17:13:40.696Z,5.40
2018-08-24T17:19:46.508Z,4.90
2018-08-24T17:25:51.517Z,2.17
2018-08-24T17:31:56.247Z,4.70
2018-08-24T17:38:01.507Z,4.37
2018-08-24T17:44:06.423Z,7.27
2018-08-24T17:50:12.032Z,3.30
2018-08-24T17:56:17.006Z,3.63
2018-08-24T18:02:22.044Z,4.30
2018-08-24T18:08:27.087Z,1.70
2018-08-24T18:14:32.196Z,3.27
2018-08-24T18:20:37.237Z,3.20
2018-08-24T18:26:42.165Z,3.80
2018-08-24T18:32:47.174Z,5.67
2018-08-24T18:38:52.144Z,5.67
2018-08-24T18:44:57.109Z,3.77
2018-08-24T18:51:02.095Z,2.53
2018-08-24T18:57:07.086Z,4.00
2018-08-24T19:03:11.850Z,4.40
2018-08-24T19:09:16.438Z,3.00
2018-08-24T19:15:21.109Z,2.77
2018-08-24T19:21:30.890Z,4.20
2018-08-24T19:27:40.565Z,3.97
2018-08-24T19:33:45.249Z,4.60
2018-08-24T19:39:55.078Z,5.40
2018-08-24T19:45:59.742Z,3.03
2018-08-24T19:52:04.381Z,4.73
2018-08-24T19:58:14.296Z,3.80
2018-08-24T20:04:18.979Z,3.20
2018-08-24T20:10:23.620Z,5.80
2018-08-24T20:16:33.374Z,2.53
2018-08-24T20:22:38.059Z,4.70
2018-08-24T20:28:42.734Z,3.70
2018-08-24T20:34:48.687Z,7.17
2018-08-24T20:40:53.548Z,2.67
2018-08-24T20:46:59.079Z,5.83
2018-08-24T20:53:04.041Z,2.50
2018-08-24T20:59:08.706Z,2.97
2018-08-24T21:05:13.357Z,4.83
2018-08-24T21:11:18.079Z,5.83
2018-08-24T21:17:22.699Z,17.93
2018-08-24T21:23:27.314Z,9.67
2018-08-24T21:29:31.953Z,8.43
2018-08-24T21:35:36.579Z,3.33
2018-08-24T21:41:41.837Z,2.70
2018-08-24T21:47:46.635Z,2.80
2018-08-24T21:53:51.377Z,2.03
2018-08-24T21:59:56.032Z,18.20
2018-08-24T22:06:00.669Z,7.50
2018-08-24T22:12:05.340Z,6.70
2018-08-24T22:18:09.996Z,5.80
2018-08-24T22:24:14.589Z,3.57
2018-08-24T22:30:19.325Z,2.97
2018-08-24T22:36:23.994Z,3.27
2018-08-24T22:42:28.675Z,5.77
2018-08-24T22:48:33.808Z,5.13
2018-08-24T22:54:38.398Z,5.97
2018-08-24T23:00:43.212Z,4.30
2018-08-24T23:06:47.903Z,2.40
2018-08-24T23:12:52.518Z,8.23
2018-08-24T23:18:57.179Z,6.27
2018-08-24T23:25:01.794Z,2.40
2018-08-24T23:31:06.894Z,2.87
2018-08-24T23:37:11.485Z,3.57
2018-08-24T23:43:16.144Z,4.60
2018-08-24T23:49:20.798Z,3.87
2018-08-24T23:55:25.429Z,5.80
